sensor_id;sensor_type;location;lat;lon;timestamp;pressure;altitude;pressure_sealevel;temperature;humidity
55070;BME280;40967;52.070;8.596;2022-10-28T00:01:09;100965.88;;;14.56;89.22
55070;BME280;40967;52.070;8.596;2022-10-28T00:03:37;100950.91;;;14.54;89.30
55070;BME280;40967;52.070;8.596;2022-10-28T00:06:05;100955.28;;;14.50;89.10
55070;BME280;40967;52.070;8.596;2022-10-28T00:08:31;100949.81;;;14.50;89.27
55070;BME280;40967;52.070;8.596;2022-10-28T00:11:07;100949.28;;;14.48;89.60
55070;BME280;40967;52.070;8.596;2022-10-28T00:13:33;100946.59;;;14.43;89.58
55070;BME280;40967;52.070;8.596;2022-10-28T00:16:04;100954.50;;;14.44;90.26
55070;BME280;40967;52.070;8.596;2022-10-28T00:18:29;100944.44;;;14.40;90.53
55070;BME280;40967;52.070;8.596;2022-10-28T00:21:03;100953.44;;;14.45;90.70
55070;BME280;40967;52.070;8.596;2022-10-28T00:23:29;100947.72;;;14.42;90.91
55070;BME280;40967;52.070;8.596;2022-10-28T00:25:54;100934.56;;;14.44;91.29
55070;BME280;40967;52.070;8.596;2022-10-28T00:28:19;100917.09;;;14.45;91.86
55070;BME280;40967;52.070;8.596;2022-10-28T00:30:45;100926.13;;;14.45;92.68
55070;BME280;40967;52.070;8.596;2022-10-28T00:33:10;100945.25;;;14.45;93.93
55070;BME280;40967;52.070;8.596;2022-10-28T00:35:35;100953.09;;;14.52;94.37
55070;BME280;40967;52.070;8.596;2022-10-28T00:38:01;100943.78;;;14.53;94.96
55070;BME280;40967;52.070;8.596;2022-10-28T00:40:26;100945.44;;;14.54;94.90
55070;BME280;40967;52.070;8.596;2022-10-28T00:42:51;100954.44;;;14.54;94.49
55070;BME280;40967;52.070;8.596;2022-10-28T00:45:17;100947.88;;;14.55;94.82
55070;BME280;40967;52.070;8.596;2022-10-28T00:47:50;100947.88;;;14.55;94.24
55070;BME280;40967;52.070;8.596;2022-10-28T00:50:47;100927.78;;;14.41;94.06
55070;BME280;40967;52.070;8.596;2022-10-28T00:53:28;100950.31;;;14.57;94.43
55070;BME280;40967;52.070;8.596;2022-10-28T00:55:56;100951.16;;;14.57;94.51
55070;BME280;40967;52.070;8.596;2022-10-28T00:58:24;100940.22;;;14.57;94.43
55070;BME280;40967;52.070;8.596;2022-10-28T01:00:50;100942.66;;;14.59;94.92
55070;BME280;40967;52.070;8.596;2022-10-28T01:03:17;100938.81;;;14.60;94.83
55070;BME280;40967;52.070;8.596;2022-10-28T01:05:46;100931.75;;;14.59;94.79
55070;BME280;40967;52.070;8.596;2022-10-28T01:08:12;100931.75;;;14.59;94.63
55070;BME280;40967;52.070;8.596;2022-10-28T01:13:45;100929.53;;;14.61;94.60
55070;BME280;40967;52.070;8.596;2022-10-28T01:16:27;100923.84;;;14.57;94.87
55070;BME280;40967;52.070;8.596;2022-10-28T01:27:21;100908.72;;;14.65;95.66
55070;BME280;40967;52.070;8.596;2022-10-28T01:33:03;100898.06;;;14.68;96.77
55070;BME280;40967;52.070;8.596;2022-10-28T01:35:33;100906.78;;;14.70;96.56
55070;BME280;40967;52.070;8.596;2022-10-28T01:41:11;100890.63;;;14.74;97.29
55070;BME280;40967;52.070;8.596;2022-10-28T01:44:08;100892.28;;;14.75;97.27
55070;BME280;40967;52.070;8.596;2022-10-28T01:46:40;100892.81;;;14.72;97.49
55070;BME280;40967;52.070;8.596;2022-10-28T01:49:15;100882.13;;;14.75;97.16
55070;BME280;40967;52.070;8.596;2022-10-28T01:51:46;100888.13;;;14.77;96.93
55070;BME280;40967;52.070;8.596;2022-10-28T01:54:15;100887.31;;;14.77;96.46
55070;BME280;40967;52.070;8.596;2022-10-28T01:56:42;100872.69;;;14.68;96.22
55070;BME280;40967;52.070;8.596;2022-10-28T01:59:16;100877.56;;;14.71;96.76
55070;BME280;40967;52.070;8.596;2022-10-28T02:01:43;100876.38;;;14.77;96.90
55070;BME280;40967;52.070;8.596;2022-10-28T02:04:08;100870.94;;;14.77;97.10
55070;BME280;40967;52.070;8.596;2022-10-28T02:06:35;100856.22;;;14.73;97.53
55070;BME280;40967;52.070;8.596;2022-10-28T02:17:52;100852.28;;;14.84;97.93
55070;BME280;40967;52.070;8.596;2022-10-28T02:20:33;100853.94;;;14.85;97.84
55070;BME280;40967;52.070;8.596;2022-10-28T02:23:11;100840.25;;;14.85;97.67
55070;BME280;40967;52.070;8.596;2022-10-28T02:25:50;100843.53;;;14.87;97.87
55070;BME280;40967;52.070;8.596;2022-10-28T02:28:22;100824.00;;;14.75;97.92
55070;BME280;40967;52.070;8.596;2022-10-28T02:30:59;100839.38;;;14.90;97.76
55070;BME280;40967;52.070;8.596;2022-10-28T02:33:32;100835.59;;;14.86;97.93
55070;BME280;40967;52.070;8.596;2022-10-28T02:36:03;100833.09;;;14.89;97.94
55070;BME280;40967;52.070;8.596;2022-10-28T02:38:33;100827.06;;;14.92;97.85
55070;BME280;40967;52.070;8.596;2022-10-28T02:41:06;100809.16;;;14.81;97.83
55070;BME280;40967;52.070;8.596;2022-10-28T02:43:33;100829.50;;;14.94;97.58
55070;BME280;40967;52.070;8.596;2022-10-28T02:46:02;100826.78;;;14.94;97.60
55070;BME280;40967;52.070;8.596;2022-10-28T02:48:43;100825.44;;;14.91;97.36
55070;BME280;40967;52.070;8.596;2022-10-28T02:51:14;100824.34;;;14.92;97.15
55070;BME280;40967;52.070;8.596;2022-10-28T02:53:49;100836.34;;;14.91;97.06
55070;BME280;40967;52.070;8.596;2022-10-28T02:56:19;100831.72;;;14.92;96.94
55070;BME280;40967;52.070;8.596;2022-10-28T02:58:46;100813.97;;;14.89;96.87
55070;BME280;40967;52.070;8.596;2022-10-28T03:01:11;100820.56;;;14.88;96.92
55070;BME280;40967;52.070;8.596;2022-10-28T03:03:37;100807.72;;;14.89;96.46
55070;BME280;40967;52.070;8.596;2022-10-28T03:06:02;100806.06;;;14.88;96.33
55070;BME280;40967;52.070;8.596;2022-10-28T03:08:27;100810.75;;;14.87;96.34
55070;BME280;40967;52.070;8.596;2022-10-28T03:10:53;100805.84;;;14.84;96.29
55070;BME280;40967;52.070;8.596;2022-10-28T03:13:18;100815.38;;;14.87;96.21
55070;BME280;40967;52.070;8.596;2022-10-28T03:15:43;100808.03;;;14.82;95.96
55070;BME280;40967;52.070;8.596;2022-10-28T03:18:10;100796.03;;;14.83;95.94
55070;BME280;40967;52.070;8.596;2022-10-28T03:20:35;100799.09;;;14.76;95.97
55070;BME280;40967;52.070;8.596;2022-10-28T03:23:01;100802.88;;;14.80;96.06
55070;BME280;40967;52.070;8.596;2022-10-28T03:25:26;100795.56;;;14.76;96.30
55070;BME280;40967;52.070;8.596;2022-10-28T03:27:51;100814.91;;;14.79;96.37
55070;BME280;40967;52.070;8.596;2022-10-28T03:30:17;100812.47;;;14.78;96.52
55070;BME280;40967;52.070;8.596;2022-10-28T03:32:43;100811.66;;;14.77;96.36
55070;BME280;40967;52.070;8.596;2022-10-28T03:35:08;100813.56;;;14.77;96.35
55070;BME280;40967;52.070;8.596;2022-10-28T03:37:34;100810.34;;;14.75;96.10
55070;BME280;40967;52.070;8.596;2022-10-28T03:39:59;100804.09;;;14.69;96.40
55070;BME280;40967;52.070;8.596;2022-10-28T03:42:27;100805.72;;;14.70;96.40
55070;BME280;40967;52.070;8.596;2022-10-28T03:44:52;100803.00;;;14.70;96.82
55070;BME280;40967;52.070;8.596;2022-10-28T03:47:18;100794.84;;;14.65;96.96
55070;BME280;40967;52.070;8.596;2022-10-28T03:49:43;100802.75;;;14.67;97.01
55070;BME280;40967;52.070;8.596;2022-10-28T03:52:09;100800.84;;;14.67;96.95
55070;BME280;40967;52.070;8.596;2022-10-28T03:54:34;100786.44;;;14.62;96.94
55070;BME280;40967;52.070;8.596;2022-10-28T03:57:00;100795.09;;;14.69;97.09
55070;BME280;40967;52.070;8.596;2022-10-28T03:59:25;100800.56;;;14.69;97.04
55070;BME280;40967;52.070;8.596;2022-10-28T04:01:50;100789.16;;;14.62;96.98
55070;BME280;40967;52.070;8.596;2022-10-28T04:04:16;100793.47;;;14.68;96.91
55070;BME280;40967;52.070;8.596;2022-10-28T04:06:41;100801.13;;;14.66;96.76
55070;BME280;40967;52.070;8.596;2022-10-28T04:09:06;100791.00;;;14.66;96.92
55070;BME280;40967;52.070;8.596;2022-10-28T04:11:32;100789.97;;;14.62;96.87
55070;BME280;40967;52.070;8.596;2022-10-28T04:13:57;100788.03;;;14.63;96.70
55070;BME280;40967;52.070;8.596;2022-10-28T04:16:22;100785.38;;;14.58;96.38
55070;BME280;40967;52.070;8.596;2022-10-28T04:18:48;100776.16;;;14.54;96.29
55070;BME280;40967;52.070;8.596;2022-10-28T04:21:13;100782.16;;;14.51;96.16
55070;BME280;40967;52.070;8.596;2022-10-28T04:23:38;100784.34;;;14.54;96.41
55070;BME280;40967;52.070;8.596;2022-10-28T04:26:04;100784.34;;;14.54;96.79
55070;BME280;40967;52.070;8.596;2022-10-28T04:28:29;100777.22;;;14.53;97.01
55070;BME280;40967;52.070;8.596;2022-10-28T04:30:55;100777.53;;;14.51;97.18
55070;BME280;40967;52.070;8.596;2022-10-28T04:33:20;100760.59;;;14.49;97.59
55070;BME280;40967;52.070;8.596;2022-10-28T04:35:45;100763.69;;;14.43;97.76
55070;BME280;40967;52.070;8.596;2022-10-28T04:38:11;100761.72;;;14.48;97.82
55070;BME280;40967;52.070;8.596;2022-10-28T04:40:37;100765.00;;;14.50;98.10
55070;BME280;40967;52.070;8.596;2022-10-28T04:43:03;100764.22;;;14.45;97.97
55070;BME280;40967;52.070;8.596;2022-10-28T04:45:30;100762.56;;;14.49;97.93
55070;BME280;40967;52.070;8.596;2022-10-28T04:47:59;100757.94;;;14.44;97.94
55070;BME280;40967;52.070;8.596;2022-10-28T04:50:25;100765.78;;;14.51;97.69
55070;BME280;40967;52.070;8.596;2022-10-28T04:52:51;100761.72;;;14.48;97.87
55070;BME280;40967;52.070;8.596;2022-10-28T04:55:16;100760.38;;;14.46;97.61
55070;BME280;40967;52.070;8.596;2022-10-28T04:57:42;100754.16;;;14.40;97.81
55070;BME280;40967;52.070;8.596;2022-10-28T05:00:08;100762.31;;;14.45;97.93
55070;BME280;40967;52.070;8.596;2022-10-28T05:02:33;100762.56;;;14.44;97.83
55070;BME280;40967;52.070;8.596;2022-10-28T05:04:59;100758.47;;;14.46;98.08
55070;BME280;40967;52.070;8.596;2022-10-28T05:07:27;100765.84;;;14.46;98.22
55070;BME280;40967;52.070;8.596;2022-10-28T05:09:53;100752.72;;;14.48;98.11
55070;BME280;40967;52.070;8.596;2022-10-28T05:12:18;100763.63;;;14.48;98.24
55070;BME280;40967;52.070;8.596;2022-10-28T05:14:43;100747.84;;;14.45;97.90
55070;BME280;40967;52.070;8.596;2022-10-28T05:17:09;100749.97;;;14.48;97.81
55070;BME280;40967;52.070;8.596;2022-10-28T05:19:35;100753.81;;;14.47;98.18
55070;BME280;40967;52.070;8.596;2022-10-28T05:22:00;100748.44;;;14.42;98.37
55070;BME280;40967;52.070;8.596;2022-10-28T05:24:25;100746.44;;;14.47;98.41
55070;BME280;40967;52.070;8.596;2022-10-28T05:26:50;100749.44;;;14.46;98.75
55070;BME280;40967;52.070;8.596;2022-10-28T05:29:16;100748.94;;;14.44;98.67
55070;BME280;40967;52.070;8.596;2022-10-28T05:31:44;100734.53;;;14.38;98.71
55070;BME280;40967;52.070;8.596;2022-10-28T05:34:09;100741.84;;;14.43;98.85
55070;BME280;40967;52.070;8.596;2022-10-28T05:36:34;100733.47;;;14.34;98.78
55070;BME280;40967;52.070;8.596;2022-10-28T05:39:00;100753.06;;;14.41;98.64
55070;BME280;40967;52.070;8.596;2022-10-28T05:41:25;100740.25;;;14.37;98.41
55070;BME280;40967;52.070;8.596;2022-10-28T05:43:51;100741.63;;;14.39;98.43
55070;BME280;40967;52.070;8.596;2022-10-28T05:46:17;100746.59;;;14.32;98.68
55070;BME280;40967;52.070;8.596;2022-10-28T05:48:42;100751.19;;;14.37;98.73
55070;BME280;40967;52.070;8.596;2022-10-28T05:51:07;100756.16;;;14.35;98.88
55070;BME280;40967;52.070;8.596;2022-10-28T05:53:33;100748.75;;;14.35;98.88
55070;BME280;40967;52.070;8.596;2022-10-28T05:55:58;100753.69;;;14.33;98.97
55070;BME280;40967;52.070;8.596;2022-10-28T05:58:23;100757.53;;;14.32;98.93
55070;BME280;40967;52.070;8.596;2022-10-28T06:00:50;100751.81;;;14.29;98.99
55070;BME280;40967;52.070;8.596;2022-10-28T06:03:15;100760.53;;;14.31;98.82
55070;BME280;40967;52.070;8.596;2022-10-28T06:05:43;100770.09;;;14.28;97.78
55070;BME280;40967;52.070;8.596;2022-10-28T06:08:12;100760.59;;;14.26;98.02
55070;BME280;40967;52.070;8.596;2022-10-28T06:10:39;100762.75;;;14.24;97.54
55070;BME280;40967;52.070;8.596;2022-10-28T06:13:04;100749.69;;;14.21;97.37
55070;BME280;40967;52.070;8.596;2022-10-28T06:15:30;100759.03;;;14.15;97.52
55070;BME280;40967;52.070;8.596;2022-10-28T06:17:55;100756.88;;;14.12;97.16
55070;BME280;40967;52.070;8.596;2022-10-28T06:20:20;100763.16;;;14.12;97.23
55070;BME280;40967;52.070;8.596;2022-10-28T06:22:53;100773.81;;;14.09;96.90
55070;BME280;40967;52.070;8.596;2022-10-28T06:25:20;100768.66;;;14.02;97.12
55070;BME280;40967;52.070;8.596;2022-10-28T06:27:52;100788.06;;;14.01;96.92
55070;BME280;40967;52.070;8.596;2022-10-28T06:30:18;100784.81;;;13.99;96.42
55070;BME280;40967;52.070;8.596;2022-10-28T06:32:43;100768.53;;;13.89;96.44
55070;BME280;40967;52.070;8.596;2022-10-28T06:35:08;100784.56;;;13.95;96.19
55070;BME280;40967;52.070;8.596;2022-10-28T06:37:34;100781.63;;;13.92;96.12
55070;BME280;40967;52.070;8.596;2022-10-28T06:39:59;100785.97;;;13.93;96.11
55070;BME280;40967;52.070;8.596;2022-10-28T06:42:25;100784.34;;;13.92;96.28
55070;BME280;40967;52.070;8.596;2022-10-28T06:44:50;100781.88;;;13.90;96.04
55070;BME280;40967;52.070;8.596;2022-10-28T06:47:16;100775.63;;;13.90;96.54
55070;BME280;40967;52.070;8.596;2022-10-28T06:49:41;100780.50;;;13.93;96.88
55070;BME280;40967;52.070;8.596;2022-10-28T06:52:07;100774.50;;;13.91;97.26
55070;BME280;40967;52.070;8.596;2022-10-28T06:54:32;100798.97;;;14.01;97.69
55070;BME280;40967;52.070;8.596;2022-10-28T06:56:57;100796.50;;;14.04;97.95
55070;BME280;40967;52.070;8.596;2022-10-28T06:59:23;100797.03;;;14.06;98.54
55070;BME280;40967;52.070;8.596;2022-10-28T07:01:48;100799.94;;;14.15;99.49
55070;BME280;40967;52.070;8.596;2022-10-28T07:04:13;100794.41;;;14.25;100.00
55070;BME280;40967;52.070;8.596;2022-10-28T07:06:39;100793.81;;;14.33;100.00
55070;BME280;40967;52.070;8.596;2022-10-28T07:09:05;100803.28;;;14.40;100.00
55070;BME280;40967;52.070;8.596;2022-10-28T07:11:31;100798.59;;;14.46;100.00
55070;BME280;40967;52.070;8.596;2022-10-28T07:13:56;100807.25;;;14.53;100.00
55070;BME280;40967;52.070;8.596;2022-10-28T07:16:21;100806.91;;;14.59;100.00
55070;BME280;40967;52.070;8.596;2022-10-28T07:18:46;100801.94;;;14.66;100.00
55070;BME280;40967;52.070;8.596;2022-10-28T07:21:12;100796.69;;;14.70;100.00
55070;BME280;40967;52.070;8.596;2022-10-28T07:23:38;100802.31;;;14.84;100.00
55070;BME280;40967;52.070;8.596;2022-10-28T07:26:04;100805.50;;;14.91;99.78
55070;BME280;40967;52.070;8.596;2022-10-28T07:28:30;100812.22;;;14.98;99.73
55070;BME280;40967;52.070;8.596;2022-10-28T07:31:00;100800.69;;;15.06;98.86
55070;BME280;40967;52.070;8.596;2022-10-28T07:33:26;100800.09;;;15.09;98.33
55070;BME280;40967;52.070;8.596;2022-10-28T07:35:51;100805.41;;;15.19;97.91
55070;BME280;40967;52.070;8.596;2022-10-28T07:38:18;100809.19;;;15.23;97.80
55070;BME280;40967;52.070;8.596;2022-10-28T07:40:43;100802.09;;;15.22;97.29
55070;BME280;40967;52.070;8.596;2022-10-28T07:43:08;100796.06;;;15.25;97.25
55070;BME280;40967;52.070;8.596;2022-10-28T07:45:34;100802.44;;;15.39;97.84
55070;BME280;40967;52.070;8.596;2022-10-28T07:48:00;100806.59;;;15.55;98.13
55070;BME280;40967;52.070;8.596;2022-10-28T07:50:26;100808.00;;;15.71;98.16
55070;BME280;40967;52.070;8.596;2022-10-28T07:52:51;100802.59;;;15.85;97.30
55070;BME280;40967;52.070;8.596;2022-10-28T07:55:16;100813.81;;;16.02;96.97
55070;BME280;40967;52.070;8.596;2022-10-28T07:57:42;100804.31;;;16.13;96.26
55070;BME280;40967;52.070;8.596;2022-10-28T08:00:07;100818.38;;;16.39;95.38
55070;BME280;40967;52.070;8.596;2022-10-28T08:02:33;100803.66;;;16.53;95.12
55070;BME280;40967;52.070;8.596;2022-10-28T08:04:58;100814.63;;;16.80;95.01
55070;BME280;40967;52.070;8.596;2022-10-28T08:07:25;100813.31;;;17.05;93.76
55070;BME280;40967;52.070;8.596;2022-10-28T08:09:54;100811.28;;;17.24;92.65
55070;BME280;40967;52.070;8.596;2022-10-28T08:12:19;100810.56;;;17.46;92.42
55070;BME280;40967;52.070;8.596;2022-10-28T08:14:45;100808.69;;;17.68;91.89
55070;BME280;40967;52.070;8.596;2022-10-28T08:17:10;100807.19;;;17.84;90.66
55070;BME280;40967;52.070;8.596;2022-10-28T08:19:35;100806.91;;;18.08;89.19
55070;BME280;40967;52.070;8.596;2022-10-28T08:22:02;100811.88;;;18.28;87.24
55070;BME280;40967;52.070;8.596;2022-10-28T08:24:27;100813.47;;;18.43;85.80
55070;BME280;40967;52.070;8.596;2022-10-28T08:26:53;100810.47;;;18.53;83.46
55070;BME280;40967;52.070;8.596;2022-10-28T08:29:18;100812.94;;;18.63;81.45
55070;BME280;40967;52.070;8.596;2022-10-28T08:31:43;100812.88;;;18.76;80.07
55070;BME280;40967;52.070;8.596;2022-10-28T08:34:09;100810.50;;;18.92;79.32
55070;BME280;40967;52.070;8.596;2022-10-28T08:36:34;100808.91;;;19.08;79.43
55070;BME280;40967;52.070;8.596;2022-10-28T08:39:00;100799.75;;;19.21;79.13
55070;BME280;40967;52.070;8.596;2022-10-28T08:41:37;100814.91;;;19.58;77.16
55070;BME280;40967;52.070;8.596;2022-10-28T08:49:22;100822.06;;;20.18;71.70
55070;BME280;40967;52.070;8.596;2022-10-28T08:51:56;100815.56;;;20.31;70.99
55070;BME280;40967;52.070;8.596;2022-10-28T08:54:28;100812.31;;;20.47;69.77
55070;BME280;40967;52.070;8.596;2022-10-28T08:56:56;100821.81;;;20.58;68.98
55070;BME280;40967;52.070;8.596;2022-10-28T08:59:30;100813.03;;;20.73;68.43
55070;BME280;40967;52.070;8.596;2022-10-28T09:01:59;100804.88;;;20.85;67.71
55070;BME280;40967;52.070;8.596;2022-10-28T09:06:56;100810.16;;;21.07;66.72
55070;BME280;40967;52.070;8.596;2022-10-28T09:09:22;100808.44;;;21.23;67.08
55070;BME280;40967;52.070;8.596;2022-10-28T09:14:27;100816.03;;;21.55;66.25
55070;BME280;40967;52.070;8.596;2022-10-28T09:17:03;100819.00;;;21.71;65.02
55070;BME280;40967;52.070;8.596;2022-10-28T09:24:44;100810.22;;;22.30;63.56
55070;BME280;40967;52.070;8.596;2022-10-28T09:27:26;100809.81;;;22.52;62.90
55070;BME280;40967;52.070;8.596;2022-10-28T09:32:36;100802.16;;;22.58;60.98
55070;BME280;40967;52.070;8.596;2022-10-28T09:35:10;100801.81;;;22.72;60.67
55070;BME280;40967;52.070;8.596;2022-10-28T09:37:40;100798.06;;;22.88;60.99
55070;BME280;40967;52.070;8.596;2022-10-28T09:40:21;100795.06;;;23.05;60.01
55070;BME280;40967;52.070;8.596;2022-10-28T09:43:22;100793.78;;;23.03;59.67
55070;BME280;40967;52.070;8.596;2022-10-28T09:45:51;100800.00;;;23.12;59.87
55070;BME280;40967;52.070;8.596;2022-10-28T09:48:40;100790.88;;;23.23;59.72
55070;BME280;40967;52.070;8.596;2022-10-28T09:51:20;100787.34;;;23.35;59.14
55070;BME280;40967;52.070;8.596;2022-10-28T09:53:54;100797.69;;;23.50;59.04
55070;BME280;40967;52.070;8.596;2022-10-28T09:56:20;100802.75;;;23.60;58.80
55070;BME280;40967;52.070;8.596;2022-10-28T09:58:46;100801.38;;;23.66;58.93
55070;BME280;40967;52.070;8.596;2022-10-28T10:01:13;100800.06;;;23.76;59.03
55070;BME280;40967;52.070;8.596;2022-10-28T10:03:39;100793.03;;;23.78;58.62
55070;BME280;40967;52.070;8.596;2022-10-28T10:06:14;100785.59;;;23.94;58.80
55070;BME280;40967;52.070;8.596;2022-10-28T10:08:42;100786.91;;;24.12;57.64
55070;BME280;40967;52.070;8.596;2022-10-28T10:11:31;100789.56;;;24.36;56.74
55070;BME280;40967;52.070;8.596;2022-10-28T10:14:05;100782.34;;;24.47;55.29
55070;BME280;40967;52.070;8.596;2022-10-28T10:19:00;100786.59;;;24.73;54.60
55070;BME280;40967;52.070;8.596;2022-10-28T10:21:39;100782.47;;;24.82;53.80
55070;BME280;40967;52.070;8.596;2022-10-28T10:26:56;100778.31;;;24.60;53.75
55070;BME280;40967;52.070;8.596;2022-10-28T10:29:22;100772.50;;;24.65;53.85
55070;BME280;40967;52.070;8.596;2022-10-28T10:32:03;100778.00;;;24.78;54.54
55070;BME280;40967;52.070;8.596;2022-10-28T10:34:30;100771.47;;;24.86;54.17
55070;BME280;40967;52.070;8.596;2022-10-28T10:36:55;100775.41;;;24.85;53.28
55070;BME280;40967;52.070;8.596;2022-10-28T10:39:25;100786.56;;;24.88;53.59
55070;BME280;40967;52.070;8.596;2022-10-28T10:41:55;100778.19;;;24.85;53.41
55070;BME280;40967;52.070;8.596;2022-10-28T10:49:17;100764.91;;;24.94;52.78
55070;BME280;40967;52.070;8.596;2022-10-28T10:54:28;100763.19;;;25.20;51.77
55070;BME280;40967;52.070;8.596;2022-10-28T10:57:06;100769.66;;;25.09;51.79
55070;BME280;40967;52.070;8.596;2022-10-28T10:59:33;100766.34;;;25.03;51.56
55070;BME280;40967;52.070;8.596;2022-10-28T11:02:02;100767.94;;;25.04;51.09
55070;BME280;40967;52.070;8.596;2022-10-28T11:04:38;100759.06;;;25.14;51.13
55070;BME280;40967;52.070;8.596;2022-10-28T11:07:04;100759.50;;;25.16;51.14
55070;BME280;40967;52.070;8.596;2022-10-28T11:11:57;100750.75;;;24.99;51.35
55070;BME280;40967;52.070;8.596;2022-10-28T11:14:30;100747.38;;;24.90;51.15
55070;BME280;40967;52.070;8.596;2022-10-28T11:16:58;100748.72;;;24.80;50.69
55070;BME280;40967;52.070;8.596;2022-10-28T11:19:35;100742.09;;;24.69;50.51
55070;BME280;40967;52.070;8.596;2022-10-28T11:30:21;100744.31;;;24.48;50.72
55070;BME280;40967;52.070;8.596;2022-10-28T11:33:12;100733.13;;;24.44;51.11
55070;BME280;40967;52.070;8.596;2022-10-28T11:35:47;100739.56;;;24.48;51.14
55070;BME280;40967;52.070;8.596;2022-10-28T11:51:51;100731.31;;;24.67;50.76
55070;BME280;40967;52.070;8.596;2022-10-28T11:54:30;100731.06;;;24.73;50.35
55070;BME280;40967;52.070;8.596;2022-10-28T11:57:09;100735.66;;;24.81;50.54
55070;BME280;40967;52.070;8.596;2022-10-28T12:05:29;100721.22;;;24.91;50.49
55070;BME280;40967;52.070;8.596;2022-10-28T12:13:37;100719.50;;;25.02;49.98
55070;BME280;40967;52.070;8.596;2022-10-28T12:23:40;100706.91;;;24.89;49.48
55070;BME280;40967;52.070;8.596;2022-10-28T12:26:10;100703.38;;;24.92;49.45
55070;BME280;40967;52.070;8.596;2022-10-28T12:28:44;100709.38;;;24.94;49.78
55070;BME280;40967;52.070;8.596;2022-10-28T12:31:31;100704.28;;;24.96;49.72
55070;BME280;40967;52.070;8.596;2022-10-28T12:34:02;100701.16;;;24.97;49.94
55070;BME280;40967;52.070;8.596;2022-10-28T12:36:47;100698.00;;;24.99;49.62
55070;BME280;40967;52.070;8.596;2022-10-28T12:42:00;100695.09;;;25.11;49.90
55070;BME280;40967;52.070;8.596;2022-10-28T12:44:29;100692.50;;;25.18;50.37
55070;BME280;40967;52.070;8.596;2022-10-28T12:47:13;100688.13;;;25.17;50.09
55070;BME280;40967;52.070;8.596;2022-10-28T12:57:42;100681.75;;;25.16;51.35
55070;BME280;40967;52.070;8.596;2022-10-28T13:02:47;100669.03;;;25.15;51.35
55070;BME280;40967;52.070;8.596;2022-10-28T13:05:23;100680.22;;;25.19;51.13
55070;BME280;40967;52.070;8.596;2022-10-28T13:11:11;100671.03;;;25.34;51.04
55070;BME280;40967;52.070;8.596;2022-10-28T13:13:50;100675.19;;;25.40;50.93
55070;BME280;40967;52.070;8.596;2022-10-28T13:27:44;100660.66;;;25.31;51.01
55070;BME280;40967;52.070;8.596;2022-10-28T13:30:17;100655.84;;;25.28;51.08
55070;BME280;40967;52.070;8.596;2022-10-28T13:32:43;100655.09;;;25.31;51.29
55070;BME280;40967;52.070;8.596;2022-10-28T13:37:37;100641.75;;;25.36;50.67
55070;BME280;40967;52.070;8.596;2022-10-28T13:40:04;100644.16;;;25.38;50.78
55070;BME280;40967;52.070;8.596;2022-10-28T13:42:46;100651.59;;;25.34;50.36
55070;BME280;40967;52.070;8.596;2022-10-28T13:56:33;100638.56;;;25.00;49.99
55070;BME280;40967;52.070;8.596;2022-10-28T13:59:03;100645.41;;;25.06;49.72
55070;BME280;40967;52.070;8.596;2022-10-28T14:04:33;100636.66;;;25.04;49.86
55070;BME280;40967;52.070;8.596;2022-10-28T14:09:35;100639.94;;;24.75;49.82
55070;BME280;40967;52.070;8.596;2022-10-28T14:12:29;100637.91;;;24.72;49.90
55070;BME280;40967;52.070;8.596;2022-10-28T14:15:14;100637.91;;;24.72;50.18
55070;BME280;40967;52.070;8.596;2022-10-28T14:17:47;100644.28;;;24.72;50.06
55070;BME280;40967;52.070;8.596;2022-10-28T14:20:36;100640.41;;;24.77;50.27
55070;BME280;40967;52.070;8.596;2022-10-28T14:50:21;100660.66;;;24.15;52.44
55070;BME280;40967;52.070;8.596;2022-10-28T14:52:49;100658.56;;;24.12;52.61
55070;BME280;40967;52.070;8.596;2022-10-28T14:55:23;100658.72;;;24.03;52.80
55070;BME280;40967;52.070;8.596;2022-10-28T14:57:49;100661.41;;;24.00;53.09
55070;BME280;40967;52.070;8.596;2022-10-28T15:00:26;100650.56;;;23.95;53.13
55070;BME280;40967;52.070;8.596;2022-10-28T15:02:54;100645.28;;;23.90;53.32
55070;BME280;40967;52.070;8.596;2022-10-28T15:05:20;100655.91;;;23.88;53.33
55070;BME280;40967;52.070;8.596;2022-10-28T15:07:47;100648.31;;;23.85;53.83
55070;BME280;40967;52.070;8.596;2022-10-28T15:10:25;100649.75;;;23.79;54.03
55070;BME280;40967;52.070;8.596;2022-10-28T15:12:54;100646.63;;;23.80;54.20
55070;BME280;40967;52.070;8.596;2022-10-28T15:15:23;100655.97;;;23.76;54.14
55070;BME280;40967;52.070;8.596;2022-10-28T15:17:49;100659.81;;;23.71;54.05
55070;BME280;40967;52.070;8.596;2022-10-28T15:20:29;100654.19;;;23.68;54.28
55070;BME280;40967;52.070;8.596;2022-10-28T15:23:18;100646.81;;;23.59;54.17
55070;BME280;40967;52.070;8.596;2022-10-28T15:25:44;100659.31;;;23.53;54.55
55070;BME280;40967;52.070;8.596;2022-10-28T15:28:11;100656.69;;;23.45;55.02
55070;BME280;40967;52.070;8.596;2022-10-28T15:30:38;100643.25;;;23.31;55.21
55070;BME280;40967;52.070;8.596;2022-10-28T15:33:19;100656.63;;;23.29;55.34
55070;BME280;40967;52.070;8.596;2022-10-28T15:35:46;100656.75;;;23.21;55.86
55070;BME280;40967;52.070;8.596;2022-10-28T15:40:52;100652.97;;;23.01;56.43
55070;BME280;40967;52.070;8.596;2022-10-28T15:43:24;100663.03;;;22.94;55.61
55070;BME280;40967;52.070;8.596;2022-10-28T15:45:51;100667.78;;;22.81;56.03
55070;BME280;40967;52.070;8.596;2022-10-28T15:48:22;100656.63;;;22.66;56.18
55070;BME280;40967;52.070;8.596;2022-10-28T15:51:16;100675.97;;;22.66;56.05
55070;BME280;40967;52.070;8.596;2022-10-28T15:53:46;100665.81;;;22.58;56.18
55070;BME280;40967;52.070;8.596;2022-10-28T15:58:59;100672.38;;;22.41;56.59
55070;BME280;40967;52.070;8.596;2022-10-28T16:01:44;100662.66;;;22.23;56.54